Darstellungsparameter: Aktuell verwendete Einstellungen:
Skalierung der Graphiken ... ?
xyx+y,   Skalierungsfaktor:      Skalierung: Modus: x, Faktor: 1
Darstellungszeitraum ... ?
Vom - - bis: - -   Zeitraum: 26.02.2011 - 26.02.2011
Min/Max/Avg-Anzeige ... ?
Zeige MMA aktuell
Zeige MMA Monat
Zeige MMA alles
Zeige --A aktuell
Zeige --A Monat
Zeige --A alles
Keine MMA-Anzeige
MMA:
Average (ber die Originaldaten)
MMA-Basis: 26.02.2011 - 26.02.2011
Quicknavigation für Darstellung... ?
Tage:      1T, 2T, 3T, 5T -1T -2T -3T -5T +1T +2T +3T +5T
Wochen: 1W, 2W, 3W -1W -2W -3W +1W +2W +3W
Monate: 1M, 3M, 6M -1M -3M -6M +1M +3M +6M
Jahre:    1J, 3J, 5J, 10J -1J -3J -5J -10J +1J +3J +5J +10J
Nutze für die Darstellung ... ?
Originaldaten oder Mittelwerte auf ...
Stundenbasis Tagesbasis Wochenbasis
Monatsbasis Jahresbasis      Datenbasis: Original-Daten
Darstellen als:
Statistik (Auto) Statistik J:M      Darstellung:
Zur Graphik,    zurück zur Übersicht aller Sensoren.
 
Tabellarische Datenbersicht: ?
 
Sensor: Nr:Datum:Temp:Abs-Feuchte:Windchill:Wind:
Aussen-T/F 1 26-02-2011 00:10:04 3.6 C 5.32 g/m*3 3.6 C 0 km/h
2 26-02-2011 00:22:04 3.6 C 5.32 g/m*3 3.6 C 0 km/h
3 26-02-2011 00:34:04 3.6 C 5.32 g/m*3 3.6 C 0 km/h
4 26-02-2011 00:46:04 3.6 C 5.32 g/m*3 3.6 C 0 km/h
5 26-02-2011 00:58:04 3.6 C 5.39 g/m*3 3.6 C 0 km/h
6 26-02-2011 01:10:04 3.6 C 5.39 g/m*3 3.6 C 0 km/h
7 26-02-2011 01:22:04 3.5 C 5.35 g/m*3 3.5 C 0 km/h
8 26-02-2011 01:34:04 3.5 C 5.35 g/m*3 3.5 C 0 km/h
9 26-02-2011 01:46:05 3.5 C 5.35 g/m*3 3.5 C 0 km/h
10 26-02-2011 01:58:05 3.5 C 5.35 g/m*3 3.5 C 0 km/h
11 26-02-2011 02:10:05 3.5 C 5.35 g/m*3 3.5 C 0 km/h
12 26-02-2011 02:22:05 3.5 C 5.35 g/m*3 3.5 C 0 km/h
13 26-02-2011 02:34:05 3.5 C 5.35 g/m*3 3.5 C 0 km/h
14 26-02-2011 02:46:05 3.5 C 5.35 g/m*3 3.5 C 0 km/h
15 26-02-2011 02:58:05 3.5 C 5.35 g/m*3 3.5 C 0 km/h
16 26-02-2011 03:10:05 3.5 C 5.29 g/m*3 3.5 C 0 km/h
17 26-02-2011 03:22:05 3.4 C 5.25 g/m*3 3.4 C 0 km/h
18 26-02-2011 03:34:05 3.4 C 5.25 g/m*3 3.4 C 0 km/h
19 26-02-2011 03:46:05 3.4 C 5.25 g/m*3 3.4 C 0 km/h
20 26-02-2011 03:58:05 3.4 C 5.25 g/m*3 3.4 C 0 km/h
21 26-02-2011 04:10:05 3.3 C 5.22 g/m*3 3.3 C 0 km/h
22 26-02-2011 04:22:05 3.3 C 5.22 g/m*3 3.3 C 0 km/h
23 26-02-2011 04:34:05 3.4 C 5.25 g/m*3 3.4 C 0 km/h
24 26-02-2011 04:46:05 3.5 C 5.29 g/m*3 3.5 C 0 km/h
25 26-02-2011 04:58:05 3.4 C 5.25 g/m*3 3.4 C 0 km/h
Sensor: Nr:Datum:Temp:Abs-Feuchte:Windchill:Wind:
Aussen-T/F 26 26-02-2011 05:10:05 3.3 C 5.22 g/m*3 3.3 C 0 km/h
27 26-02-2011 05:22:05 3.4 C 5.25 g/m*3 3.4 C 0 km/h
28 26-02-2011 05:34:05 3.8 C 5.33 g/m*3 3.8 C 0 km/h
29 26-02-2011 05:46:06 4.1 C 5.25 g/m*3 4.1 C 0 km/h
30 26-02-2011 05:58:06 4.1 C 5.06 g/m*3 4.1 C 0 km/h
31 26-02-2011 06:10:06 4.1 C 4.93 g/m*3 4.1 C 0 km/h
32 26-02-2011 06:22:06 4 C 4.9 g/m*3 4 C 0 km/h
33 26-02-2011 06:34:06 3.7 C 4.86 g/m*3 3.7 C 0 km/h
34 26-02-2011 06:46:06 3.4 C 4.83 g/m*3 3.4 C 0 km/h
35 26-02-2011 06:58:06 2.9 C 4.84 g/m*3 2.9 C 0 km/h
36 26-02-2011 07:10:06 2.7 C 4.84 g/m*3 2.7 C 0 km/h
37 26-02-2011 07:22:06 2.7 C 4.89 g/m*3 2.7 C 0 km/h
38 26-02-2011 07:34:06 2.6 C 4.92 g/m*3 2.6 C 0 km/h
39 26-02-2011 07:46:06 2.9 C 5.02 g/m*3 2.9 C 0 km/h
40 26-02-2011 07:58:06 3.6 C 5.14 g/m*3 3.6 C 0 km/h
41 26-02-2011 08:10:06 3.8 C 4.96 g/m*3 3.8 C 0 km/h
42 26-02-2011 08:22:06 3.8 C 4.89 g/m*3 3.8 C 0 km/h
43 26-02-2011 08:34:03 3.9 C 4.93 g/m*3 3.9 C 0 km/h
44 26-02-2011 08:46:02 4 C 4.83 g/m*3 4 C 0 km/h
45 26-02-2011 08:58:02 4.2 C 4.83 g/m*3 4.2 C 0 km/h
46 26-02-2011 09:10:02 4.2 C 4.77 g/m*3 4.2 C 0 km/h
47 26-02-2011 09:22:02 4.2 C 4.7 g/m*3 4.2 C 0 km/h
48 26-02-2011 09:34:02 4.1 C 4.67 g/m*3 4.1 C 0 km/h
49 26-02-2011 09:46:02 3.9 C 4.61 g/m*3 3.9 C 0 km/h
50 26-02-2011 09:58:03 4.1 C 4.61 g/m*3 4.1 C 0 km/h
Sensor: Nr:Datum:Temp:Abs-Feuchte:Windchill:Wind:
Aussen-T/F 51 26-02-2011 10:10:01 4.1 C 4.61 g/m*3 4.1 C 0 km/h
52 26-02-2011 10:22:02 4.3 C 4.61 g/m*3 4.3 C 0 km/h
53 26-02-2011 10:34:02 4.7 C 4.6 g/m*3 4.7 C 0 km/h
54 26-02-2011 10:46:02 5.2 C 4.61 g/m*3 5.2 C 0 km/h
55 26-02-2011 10:58:02 5.7 C 4.63 g/m*3 5.7 C 0 km/h
56 26-02-2011 11:10:03 5.6 C 4.45 g/m*3 5.6 C 0 km/h
57 26-02-2011 11:22:02 5.6 C 4.38 g/m*3 5.6 C 0 km/h
58 26-02-2011 11:34:03 5.6 C 4.38 g/m*3 5.6 C 0 km/h
59 26-02-2011 11:46:02 6.5 C 4.65 g/m*3 6.5 C 0 km/h
60 26-02-2011 11:58:02 6.1 C 4.38 g/m*3 6.1 C 0 km/h
61 26-02-2011 12:10:02 7.4 C 4.61 g/m*3 7.4 C 0 km/h
62 26-02-2011 12:22:02 7.8 C 4.57 g/m*3 7.8 C 0 km/h
63 26-02-2011 12:34:02 8 C 4.38 g/m*3 8 C 0 km/h
64 26-02-2011 12:46:02 7.7 C 4.46 g/m*3 7.7 C 0 km/h
65 26-02-2011 12:58:02 7.1 C 4.45 g/m*3 7.1 C 0 km/h
66 26-02-2011 13:10:02 7.4 C 4.53 g/m*3 7.4 C 0 km/h
67 26-02-2011 13:22:02 8.4 C 4.58 g/m*3 8.4 C 0 km/h
68 26-02-2011 13:34:02 8.6 C 4.38 g/m*3 8.6 C 0 km/h
69 26-02-2011 13:46:02 8.9 C 4.64 g/m*3 8.9 C 0 km/h
70 26-02-2011 13:58:02 8.7 C 4.58 g/m*3 8.7 C 0 km/h
71 26-02-2011 14:10:02 8.6 C 4.55 g/m*3 8.6 C 0 km/h
72 26-02-2011 14:22:02 8 C 4.63 g/m*3 8 C 0 km/h
73 26-02-2011 14:34:02 8.9 C 4.73 g/m*3 8.9 C 0 km/h
74 26-02-2011 14:46:02 9.5 C 4.64 g/m*3 9.5 C 0 km/h
75 26-02-2011 14:58:02 8.8 C 4.53 g/m*3 8.8 C 0 km/h
Sensor: Nr:Datum:Temp:Abs-Feuchte:Windchill:Wind:
Aussen-T/F 76 26-02-2011 15:10:02 8.7 C 4.58 g/m*3 8.7 C 0 km/h
77 26-02-2011 15:22:03 8 C 4.63 g/m*3 8 C 0 km/h
78 26-02-2011 15:34:02 7.7 C 4.7 g/m*3 7.7 C 0 km/h
79 26-02-2011 15:46:02 7.7 C 4.87 g/m*3 7.7 C 0 km/h
80 26-02-2011 15:58:02 7.8 C 4.73 g/m*3 7.8 C 0 km/h
81 26-02-2011 16:10:02 7.7 C 4.7 g/m*3 7.7 C 0 km/h
82 26-02-2011 16:22:02 7.4 C 4.77 g/m*3 7.4 C 0 km/h
83 26-02-2011 16:34:01 7 C 4.8 g/m*3 7 C 0 km/h
84 26-02-2011 16:46:02 6.9 C 4.93 g/m*3 6.9 C 0 km/h
85 26-02-2011 16:58:03 6.7 C 4.94 g/m*3 6.7 C 0 km/h
86 26-02-2011 17:10:01 6.7 C 5.01 g/m*3 6.7 C 0 km/h
87 26-02-2011 17:22:01 6.6 C 5.06 g/m*3 6.6 C 0 km/h
88 26-02-2011 17:34:02 6.4 C 5.07 g/m*3 6.4 C 0 km/h
89 26-02-2011 17:46:02 6.3 C 5.11 g/m*3 6.3 C 0 km/h
90 26-02-2011 17:58:02 6 C 5.15 g/m*3 6 C 0 km/h
91 26-02-2011 18:10:02 5.8 C 5.3 g/m*3 5.8 C 0 km/h
92 26-02-2011 18:22:02 5.8 C 5.37 g/m*3 5.8 C 0 km/h
93 26-02-2011 18:34:02 5.6 C 5.37 g/m*3 5.6 C 0 km/h
94 26-02-2011 18:46:02 5.4 C 5.37 g/m*3 5.4 C 0 km/h
95 26-02-2011 18:58:02 5.2 C 5.51 g/m*3 5.2 C 0 km/h
96 26-02-2011 19:10:02 5.1 C 5.68 g/m*3 5.1 C 0 km/h
97 26-02-2011 19:22:02 5 C 5.71 g/m*3 5 C 0 km/h
98 26-02-2011 19:34:02 5 C 5.71 g/m*3 5 C 0 km/h
99 26-02-2011 19:46:02 4.8 C 5.77 g/m*3 4.8 C 0 km/h
100 26-02-2011 19:58:02 4.9 C 5.81 g/m*3 4.9 C 0 km/h
Sensor: Nr:Datum:Temp:Abs-Feuchte:Windchill:Wind:
Aussen-T/F 101 26-02-2011 20:10:02 4.8 C 5.77 g/m*3 4.8 C 0 km/h
102 26-02-2011 20:22:02 4.9 C 5.81 g/m*3 4.9 C 0 km/h
103 26-02-2011 20:34:02 4.7 C 5.8 g/m*3 4.7 C 0 km/h
104 26-02-2011 20:46:02 4.7 C 5.8 g/m*3 4.7 C 0 km/h
105 26-02-2011 20:58:02 4.6 C 5.76 g/m*3 4.6 C 0 km/h
106 26-02-2011 21:10:02 4.6 C 5.82 g/m*3 4.6 C 0 km/h
107 26-02-2011 21:22:02 4.6 C 5.82 g/m*3 4.6 C 0 km/h
108 26-02-2011 21:34:01 4.6 C 5.82 g/m*3 4.6 C 0 km/h
109 26-02-2011 21:47:02 4.6 C 5.82 g/m*3 4.6 C 0 km/h
110 26-02-2011 21:59:02 4.6 C 5.82 g/m*3 4.6 C 0 km/h
111 26-02-2011 22:11:02 4.7 C 5.86 g/m*3 4.7 C 0 km/h
112 26-02-2011 22:23:02 4.6 C 5.89 g/m*3 4.6 C 0 km/h
113 26-02-2011 22:35:02 4.4 C 5.81 g/m*3 4.4 C 0 km/h
114 26-02-2011 22:47:02 4.4 C 5.81 g/m*3 4.4 C 0 km/h
115 26-02-2011 22:59:02 4.3 C 5.77 g/m*3 4.3 C 0 km/h
116 26-02-2011 23:11:02 4.3 C 5.77 g/m*3 4.3 C 0 km/h
117 26-02-2011 23:23:02 4.4 C 5.81 g/m*3 4.4 C 0 km/h
118 26-02-2011 23:35:02 4.7 C 6 g/m*3 4.7 C 0 km/h
119 26-02-2011 23:47:02 5 C 6.05 g/m*3 5 C 0 km/h
120 26-02-2011 23:59:03 5.1 C 6.09 g/m*3 5.1 C 0 km/h

Legende:
   Min
   Max


Maximal/Minimal-Werte vom 26.02.2011 - 26.02.2011

Sensor Min Max Avg
Temp
(Aussen-T/F)
2.6 °C
26-02-2011  07:34:06
9.5 °C
26-02-2011  14:46:02
5.07 °C
Abs-Feuchte
(Aussen-T/F)
4.38 g/m*3
26-02-2011  11:22:02
6.09 g/m*3
26-02-2011  23:59:03
5.08 g/m*3
Windchill
(Aussen-T/F)
2.6 C
26-02-2011  07:34:06
9.5 C
26-02-2011  14:46:02
5.03 C

Die Daten stammen von einer Davis Vantage Pro 2 Wetter-Station und werden unter Linux mit der Software wview2wettercgi und aufbereitet. Alle Angaben erfolgen ohne Gewähr für ihre Vollständigkeit oder Richtigkeit.
Kontakt: Rainer Krienke krienke@uni-koblenz.de . Meine Webseiten an der Uni Koblenz oder privat.
Version: $Revision: 0.78 $